createdAt,value
2022-09-17T00:02:01.494Z,13.32
2022-09-17T00:04:34.210Z,13.51
2022-09-17T00:07:06.244Z,13.54
2022-09-17T00:09:38.237Z,13.65
2022-09-17T00:12:10.506Z,13.64
2022-09-17T00:14:42.917Z,13.44
2022-09-17T00:17:14.905Z,13.37
2022-09-17T00:19:47.191Z,13.48
2022-09-17T00:22:19.502Z,13.38
2022-09-17T00:24:51.612Z,13.33
2022-09-17T00:27:23.660Z,13.45
2022-09-17T00:29:55.531Z,13.47
2022-09-17T00:32:27.942Z,13.52
2022-09-17T00:34:59.894Z,13.35
2022-09-17T00:37:31.941Z,13.28
2022-09-17T00:40:04.173Z,13.32
2022-09-17T00:42:36.277Z,13.43
2022-09-17T00:45:10.695Z,13.73
2022-09-17T00:47:46.821Z,13.57
2022-09-17T00:50:23.016Z,13.69
2022-09-17T00:52:58.673Z,13.75
2022-09-17T00:55:34.753Z,13.87
2022-09-17T00:58:10.862Z,13.89
2022-09-17T01:00:43.702Z,13.99
2022-09-17T01:03:15.903Z,13.84
2022-09-17T01:05:57.585Z,14.06
2022-09-17T01:08:39.095Z,14.12
2022-09-17T01:11:37.455Z,14.05
2022-09-17T01:14:23.231Z,14.18
2022-09-17T01:17:01.780Z,14.02
2022-09-17T01:20:06.104Z,14.16
2022-09-17T01:22:47.780Z,13.95
2022-09-17T01:25:31.376Z,13.98
2022-09-17T01:28:32.852Z,14.04
2022-09-17T01:31:18.521Z,13.73
2022-09-17T01:34:01.529Z,13.77
2022-09-17T01:36:48.609Z,13.90
2022-09-17T01:39:33.060Z,13.83
2022-09-17T01:42:16.903Z,13.98
2022-09-17T01:44:57.632Z,13.99
2022-09-17T01:47:36.805Z,14.05
2022-09-17T01:50:13.858Z,13.95
2022-09-17T01:52:49.143Z,14.14
2022-09-17T01:55:24.896Z,13.94
2022-09-17T01:58:02.029Z,14.03
2022-09-17T02:00:34.652Z,14.17
2022-09-17T02:03:11.873Z,13.97
2022-09-17T02:05:46.936Z,14.01
2022-09-17T02:08:23.554Z,14.08
2022-09-17T02:11:04.681Z,13.88
2022-09-17T02:13:42.532Z,13.77
2022-09-17T02:16:19.146Z,13.75
2022-09-17T02:18:56.284Z,13.89
2022-09-17T02:21:37.056Z,13.80
2022-09-17T02:24:18.544Z,13.73
2022-09-17T02:26:57.754Z,13.65
2022-09-17T02:29:35.961Z,13.76
2022-09-17T02:32:08.449Z,13.81
2022-09-17T02:34:41.387Z,13.86
2022-09-17T02:37:14.216Z,13.76
2022-09-17T02:39:49.320Z,13.76
2022-09-17T02:42:30.326Z,13.88
2022-09-17T02:45:08.507Z,13.98
2022-09-17T02:47:54.220Z,14.02
2022-09-17T02:50:37.117Z,13.97
2022-09-17T02:53:28.710Z,13.90
2022-09-17T02:56:10.276Z,13.96
2022-09-17T02:58:51.264Z,13.86
2022-09-17T03:01:29.531Z,13.92
2022-09-17T03:04:04.425Z,13.99
2022-09-17T03:06:36.483Z,14.09
2022-09-17T03:09:08.509Z,14.10
2022-09-17T03:11:40.824Z,14.16
2022-09-17T03:14:12.704Z,14.29
2022-09-17T03:16:44.699Z,14.24
2022-09-17T03:19:16.712Z,14.14
2022-09-17T03:21:49.975Z,14.00
2022-09-17T03:24:21.996Z,13.99
2022-09-17T03:26:54.125Z,14.01
2022-09-17T03:29:26.217Z,13.94
2022-09-17T03:31:58.242Z,14.04
2022-09-17T03:34:30.124Z,14.05
2022-09-17T03:37:02.654Z,14.00
2022-09-17T03:39:35.327Z,14.10
2022-09-17T03:42:08.270Z,13.99
2022-09-17T03:44:44.709Z,13.82
2022-09-17T03:47:17.955Z,14.00
2022-09-17T03:49:50.214Z,14.02
2022-09-17T03:52:22.579Z,14.11
2022-09-17T03:54:54.588Z,14.06
2022-09-17T03:57:26.979Z,14.09
2022-09-17T03:59:59.085Z,14.14
2022-09-17T04:02:31.269Z,14.16
2022-09-17T04:05:03.362Z,14.11
2022-09-17T04:07:35.294Z,13.85
2022-09-17T04:10:08.534Z,14.01
2022-09-17T04:12:41.143Z,13.99
2022-09-17T04:15:14.055Z,13.93
2022-09-17T04:17:46.223Z,13.99
2022-09-17T04:20:18.701Z,13.97
2022-09-17T04:22:51.246Z,13.95
2022-09-17T04:25:23.878Z,14.01
2022-09-17T04:27:56.240Z,14.04
2022-09-17T04:30:28.351Z,14.06
2022-09-17T04:33:00.335Z,13.95
2022-09-17T04:35:32.681Z,13.93
2022-09-17T04:38:05.248Z,14.03
2022-09-17T04:40:37.276Z,14.01
2022-09-17T04:43:10.698Z,14.05
2022-09-17T04:45:42.774Z,14.04
2022-09-17T04:48:14.935Z,14.03
2022-09-17T04:50:47.163Z,14.06
2022-09-17T04:53:20.398Z,14.04
2022-09-17T04:55:52.683Z,13.94
2022-09-17T04:58:24.798Z,14.01
2022-09-17T05:00:56.860Z,13.97
2022-09-17T05:03:29.259Z,14.02
2022-09-17T05:06:01.241Z,14.02
2022-09-17T05:08:35.791Z,14.05
2022-09-17T05:11:08.047Z,14.15
2022-09-17T05:13:40.365Z,14.15
2022-09-17T05:16:12.479Z,14.02
2022-09-17T05:18:44.702Z,14.13
2022-09-17T05:21:16.852Z,14.11
2022-09-17T05:23:49.590Z,14.12
2022-09-17T05:26:22.426Z,14.20
2022-09-17T05:28:54.689Z,14.22
2022-09-17T05:31:27.184Z,14.12
2022-09-17T05:34:00.344Z,14.03
2022-09-17T05:36:32.315Z,14.02
2022-09-17T05:39:04.468Z,14.03
2022-09-17T05:41:36.631Z,14.06
2022-09-17T05:44:09.027Z,14.08
2022-09-17T05:46:41.540Z,14.00
2022-09-17T05:49:14.371Z,14.03
2022-09-17T05:51:46.566Z,14.10
2022-09-17T05:54:19.228Z,14.17
2022-09-17T05:56:53.658Z,14.21
2022-09-17T05:59:25.914Z,14.21
2022-09-17T06:01:58.049Z,14.26
2022-09-17T06:04:34.112Z,14.30
2022-09-17T06:07:09.356Z,14.20
2022-09-17T06:09:41.727Z,14.23
2022-09-17T06:12:13.919Z,14.31
2022-09-17T06:14:46.452Z,14.39
2022-09-17T06:17:22.091Z,14.43
2022-09-17T06:19:54.376Z,14.61
2022-09-17T06:22:26.543Z,14.35
2022-09-17T06:24:59.871Z,14.55
2022-09-17T06:27:34.696Z,14.64
2022-09-17T06:30:08.130Z,14.55
2022-09-17T06:32:40.255Z,14.46
2022-09-17T06:35:12.648Z,14.41
2022-09-17T06:37:44.684Z,14.50
2022-09-17T06:40:17.795Z,14.47
2022-09-17T06:42:50.178Z,14.45
2022-09-17T06:45:22.321Z,14.37
2022-09-17T06:47:54.614Z,14.42
2022-09-17T06:50:27.084Z,14.45
2022-09-17T06:52:59.151Z,14.46
2022-09-17T06:55:31.744Z,14.41
2022-09-17T06:58:03.842Z,14.41
2022-09-17T07:00:36.610Z,14.41
2022-09-17T07:03:10.248Z,14.37
2022-09-17T07:05:44.536Z,14.30
2022-09-17T07:08:16.462Z,14.35
2022-09-17T07:10:48.940Z,14.41
2022-09-17T07:13:20.881Z,14.41
2022-09-17T07:16:00.539Z,14.33
2022-09-17T07:18:34.280Z,14.37
2022-09-17T07:21:08.166Z,14.39
2022-09-17T07:23:41.171Z,14.42
2022-09-17T07:26:16.713Z,14.47
2022-09-17T07:28:48.956Z,14.50
2022-09-17T07:31:21.267Z,14.47
2022-09-17T07:33:53.374Z,14.50
2022-09-17T07:36:25.475Z,14.62
2022-09-17T07:38:57.584Z,14.69
2022-09-17T07:41:29.707Z,14.58
2022-09-17T07:44:02.858Z,14.54
2022-09-17T07:46:35.336Z,14.46
2022-09-17T07:49:07.697Z,14.63
2022-09-17T07:51:40.588Z,14.86
2022-09-17T07:54:13.374Z,14.95
2022-09-17T07:56:46.370Z,14.90
2022-09-17T07:59:18.278Z,14.97
2022-09-17T08:01:51.084Z,15.02
2022-09-17T08:04:23.869Z,14.87
2022-09-17T08:06:55.957Z,15.03
2022-09-17T08:09:27.972Z,15.08
2022-09-17T08:11:59.979Z,15.08
2022-09-17T08:14:32.328Z,15.21
2022-09-17T08:17:04.462Z,15.28
2022-09-17T08:19:36.934Z,15.29
2022-09-17T08:22:09.138Z,15.35
2022-09-17T08:24:42.579Z,15.38
2022-09-17T08:27:15.108Z,15.38
2022-09-17T08:29:47.393Z,15.46
2022-09-17T08:32:19.651Z,15.46
2022-09-17T08:34:57.978Z,15.47
2022-09-17T08:37:30.941Z,15.45
2022-09-17T08:40:03.384Z,15.53
2022-09-17T08:42:42.829Z,15.49
2022-09-17T08:45:19.105Z,15.72
2022-09-17T08:47:51.862Z,15.92
2022-09-17T08:50:32.740Z,15.98
2022-09-17T08:53:26.248Z,16.16
2022-09-17T08:56:03.569Z,16.31
2022-09-17T08:58:58.721Z,16.31
2022-09-17T09:01:42.169Z,16.27
2022-09-17T09:04:46.448Z,16.32
2022-09-17T09:07:22.947Z,16.22
2022-09-17T09:10:06.200Z,16.31
2022-09-17T09:12:40.752Z,16.43
2022-09-17T09:15:24.945Z,16.41
2022-09-17T09:17:59.851Z,16.57
2022-09-17T09:20:41.153Z,16.66
2022-09-17T09:23:18.919Z,16.68
2022-09-17T09:25:56.813Z,16.60
2022-09-17T09:29:02.530Z,16.51
2022-09-17T09:31:42.893Z,16.54
2022-09-17T09:34:16.841Z,16.56
2022-09-17T09:36:50.522Z,16.64
2022-09-17T09:39:27.052Z,16.63
2022-09-17T09:42:05.891Z,16.55
2022-09-17T09:44:38.936Z,16.57
2022-09-17T09:47:42.894Z,16.64
2022-09-17T09:51:05.359Z,16.60
2022-09-17T09:53:51.589Z,16.56
2022-09-17T09:56:39.867Z,16.72
2022-09-17T09:59:14.020Z,16.55
2022-09-17T10:01:46.445Z,16.76
2022-09-17T10:04:22.051Z,16.97
2022-09-17T10:06:56.963Z,17.11
2022-09-17T10:09:30.140Z,17.10
2022-09-17T10:12:16.560Z,17.39
2022-09-17T10:14:49.106Z,17.54
2022-09-17T10:17:24.027Z,17.39
2022-09-17T10:20:22.898Z,17.40
2022-09-17T10:22:55.603Z,17.65
2022-09-17T10:25:31.911Z,17.56
2022-09-17T10:28:07.119Z,17.48
2022-09-17T10:30:39.636Z,17.57
2022-09-17T10:33:20.900Z,17.69
2022-09-17T10:36:06.435Z,17.74
2022-09-17T10:38:40.931Z,17.47
2022-09-17T10:41:21.993Z,17.37
2022-09-17T10:43:55.341Z,17.37
2022-09-17T10:46:33.948Z,17.15
2022-09-17T10:49:21.111Z,17.61
2022-09-17T10:51:53.603Z,17.76
2022-09-17T10:54:44.613Z,18.02
2022-09-17T10:57:28.400Z,17.99
2022-09-17T11:00:19.212Z,17.96
2022-09-17T11:03:34.099Z,18.29
2022-09-17T11:06:22.007Z,18.38
2022-09-17T11:09:05.445Z,18.40
2022-09-17T11:11:48.075Z,18.48
2022-09-17T11:14:38.243Z,18.47
2022-09-17T11:17:23.801Z,18.58
2022-09-17T11:20:04.478Z,18.63
2022-09-17T11:22:49.398Z,18.57
2022-09-17T11:25:40.018Z,18.90
2022-09-17T11:28:27.022Z,19.03
2022-09-17T11:31:14.439Z,18.98
2022-09-17T11:34:04.212Z,19.07
2022-09-17T11:36:47.498Z,19.22
2022-09-17T11:39:27.024Z,19.13
2022-09-17T11:42:03.488Z,19.28
2022-09-17T11:44:42.237Z,19.20
2022-09-17T11:47:20.403Z,18.99
2022-09-17T11:49:57.684Z,18.90
2022-09-17T11:52:35.667Z,18.98
2022-09-17T11:55:19.455Z,18.99
2022-09-17T11:58:01.592Z,19.05
2022-09-17T12:00:46.485Z,19.06
2022-09-17T12:03:28.495Z,19.10
2022-09-17T12:09:59.380Z,18.85
2022-09-17T12:12:50.291Z,19.17
2022-09-17T12:15:53.608Z,19.49
2022-09-17T12:18:41.558Z,19.49
2022-09-17T12:21:21.919Z,19.59
2022-09-17T12:24:24.143Z,19.62
2022-09-17T12:27:17.141Z,19.73
2022-09-17T12:30:12.534Z,19.53
2022-09-17T12:33:01.028Z,19.85
2022-09-17T12:36:05.230Z,19.81
2022-09-17T12:39:26.938Z,19.67
2022-09-17T12:42:14.482Z,19.80
2022-09-17T12:45:09.900Z,19.80
2022-09-17T12:48:04.448Z,19.62
2022-09-17T12:50:56.603Z,19.78
2022-09-17T12:53:39.311Z,19.41
2022-09-17T12:56:31.857Z,19.16
2022-09-17T12:59:13.383Z,18.70
2022-09-17T13:01:57.188Z,18.57
2022-09-17T13:05:01.121Z,18.48
2022-09-17T13:08:03.115Z,18.18
2022-09-17T13:10:50.195Z,17.95
2022-09-17T13:13:37.833Z,17.80
2022-09-17T13:16:20.016Z,17.58
2022-09-17T13:19:17.621Z,17.12
2022-09-17T13:21:55.720Z,16.94
2022-09-17T13:24:31.411Z,16.73
2022-09-17T13:27:06.105Z,16.65
2022-09-17T13:30:02.046Z,16.61
2022-09-17T13:32:48.208Z,16.58
2022-09-17T13:35:51.025Z,16.50
2022-09-17T13:38:24.869Z,16.60
2022-09-17T13:41:21.867Z,16.56
2022-09-17T13:43:56.114Z,16.58
2022-09-17T13:46:32.778Z,16.60
2022-09-17T13:49:07.517Z,16.65
2022-09-17T13:51:49.649Z,16.71
2022-09-17T13:54:36.635Z,16.65
2022-09-17T13:57:16.145Z,16.63
2022-09-17T14:00:00.876Z,16.77
2022-09-17T14:02:38.236Z,16.93
2022-09-17T14:05:38.013Z,17.13
2022-09-17T14:08:29.291Z,17.32
2022-09-17T14:11:24.192Z,17.50
2022-09-17T14:13:59.077Z,17.48
2022-09-17T14:16:52.327Z,17.66
2022-09-17T14:19:32.540Z,17.75
2022-09-17T14:22:14.518Z,17.81
2022-09-17T14:24:55.105Z,17.79
2022-09-17T14:27:51.515Z,17.72
2022-09-17T14:30:25.241Z,17.78
2022-09-17T14:33:06.609Z,17.91
2022-09-17T14:35:42.991Z,17.87
2022-09-17T14:38:20.826Z,17.84
2022-09-17T14:41:00.824Z,17.89
2022-09-17T14:43:41.075Z,17.82
2022-09-17T14:46:20.393Z,17.80
2022-09-17T14:48:52.969Z,17.82
2022-09-17T14:51:30.846Z,17.70
2022-09-17T14:54:17.926Z,17.77
2022-09-17T14:56:59.236Z,17.53
2022-09-17T14:59:50.999Z,17.50
2022-09-17T15:02:31.279Z,17.69
2022-09-17T15:05:04.312Z,17.64
2022-09-17T15:07:36.378Z,17.61
2022-09-17T15:10:17.882Z,17.61
2022-09-17T15:12:51.553Z,17.52
2022-09-17T15:15:27.392Z,17.45
2022-09-17T15:18:01.005Z,17.37
2022-09-17T15:20:33.807Z,17.30
2022-09-17T15:23:16.322Z,17.27
2022-09-17T15:25:53.802Z,17.35
2022-09-17T15:28:32.853Z,17.10
2022-09-17T15:31:06.565Z,17.29
2022-09-17T15:33:42.893Z,17.29
2022-09-17T15:36:22.399Z,17.20
2022-09-17T15:39:02.457Z,17.14
2022-09-17T15:41:39.737Z,17.15
2022-09-17T15:44:36.836Z,17.21
2022-09-17T15:47:43.425Z,17.16
2022-09-17T15:50:21.296Z,17.08
2022-09-17T15:53:12.695Z,16.97
2022-09-17T15:55:48.397Z,16.96
2022-09-17T15:58:27.018Z,16.97
2022-09-17T16:01:51.782Z,17.01
2022-09-17T16:04:27.032Z,16.86
2022-09-17T16:07:19.910Z,16.72
2022-09-17T16:09:53.398Z,16.63
2022-09-17T16:12:27.308Z,16.58
2022-09-17T16:15:01.586Z,16.80
2022-09-17T16:17:43.992Z,16.86
2022-09-17T16:20:21.997Z,16.85
2022-09-17T16:22:55.091Z,16.84
2022-09-17T16:25:29.717Z,16.85
2022-09-17T16:28:04.358Z,16.77
2022-09-17T16:30:36.658Z,16.84
2022-09-17T16:33:11.628Z,16.83
2022-09-17T16:35:44.606Z,16.65
2022-09-17T16:38:17.426Z,16.56
2022-09-17T16:40:51.789Z,16.56
2022-09-17T16:43:24.475Z,16.59
2022-09-17T16:46:04.314Z,16.50
2022-09-17T16:48:37.754Z,16.38
2022-09-17T16:51:11.608Z,16.45
2022-09-17T16:53:44.523Z,16.55
2022-09-17T16:56:17.258Z,16.57
2022-09-17T16:58:49.452Z,16.52
2022-09-17T17:01:21.577Z,16.35
2022-09-17T17:03:55.820Z,16.53
2022-09-17T17:06:28.220Z,16.54
2022-09-17T17:09:02.085Z,16.48
2022-09-17T17:11:34.238Z,16.34
2022-09-17T17:14:06.581Z,16.36
2022-09-17T17:16:40.922Z,16.38
2022-09-17T17:19:13.620Z,16.35
2022-09-17T17:21:47.242Z,16.32
2022-09-17T17:24:19.744Z,16.27
2022-09-17T17:26:53.236Z,16.16
2022-09-17T17:29:25.652Z,16.13
2022-09-17T17:31:57.800Z,16.20
2022-09-17T17:34:29.873Z,16.09
2022-09-17T17:37:02.395Z,16.16
2022-09-17T17:39:34.437Z,16.09
2022-09-17T17:42:07.189Z,15.96
2022-09-17T17:44:39.246Z,15.99
2022-09-17T17:47:11.633Z,16.05
2022-09-17T17:49:44.676Z,16.07
2022-09-17T17:52:16.961Z,16.09
2022-09-17T17:54:49.548Z,16.07
2022-09-17T17:57:21.617Z,16.04
2022-09-17T17:59:53.689Z,16.15
2022-09-17T18:02:26.110Z,16.16
2022-09-17T18:05:03.418Z,16.09
2022-09-17T18:07:36.465Z,16.02
2022-09-17T18:10:09.812Z,16.02
2022-09-17T18:12:42.558Z,16.02
2022-09-17T18:15:14.972Z,16.04
2022-09-17T18:17:48.142Z,16.02
2022-09-17T18:20:22.237Z,16.05
2022-09-17T18:22:54.507Z,15.98
2022-09-17T18:25:28.757Z,15.96
2022-09-17T18:28:01.432Z,15.94
2022-09-17T18:30:33.505Z,15.92
2022-09-17T18:33:05.553Z,15.93
2022-09-17T18:35:40.663Z,15.94
2022-09-17T18:38:12.904Z,15.99
2022-09-17T18:40:45.385Z,16.00
2022-09-17T18:43:18.113Z,16.01
2022-09-17T18:45:56.815Z,16.04
2022-09-17T18:48:33.077Z,15.96
2022-09-17T18:51:11.385Z,15.83
2022-09-17T18:53:46.247Z,15.83
2022-09-17T18:56:23.171Z,15.80
2022-09-17T18:58:57.239Z,15.77
2022-09-17T19:01:31.413Z,15.69
2022-09-17T19:04:05.023Z,15.76
2022-09-17T19:06:38.137Z,15.80
2022-09-17T19:09:11.639Z,15.69
2022-09-17T19:11:43.787Z,15.70
2022-09-17T19:14:15.760Z,15.74
2022-09-17T19:16:48.399Z,15.75
2022-09-17T19:19:20.444Z,15.72
2022-09-17T19:21:53.107Z,15.72
2022-09-17T19:24:25.247Z,15.73
2022-09-17T19:26:59.448Z,15.64
2022-09-17T19:29:31.635Z,15.36
2022-09-17T19:32:04.087Z,15.54
2022-09-17T19:34:36.618Z,15.54
2022-09-17T19:37:08.644Z,15.64
2022-09-17T19:39:40.907Z,15.53
2022-09-17T19:42:13.127Z,15.43
2022-09-17T19:44:45.195Z,15.35
2022-09-17T19:47:17.239Z,15.31
2022-09-17T19:49:52.221Z,15.27
2022-09-17T19:52:24.338Z,15.30
2022-09-17T19:54:56.632Z,15.21
2022-09-17T19:57:28.955Z,15.07
2022-09-17T20:00:04.403Z,15.04
2022-09-17T20:02:42.944Z,15.03
2022-09-17T20:05:15.076Z,14.99
2022-09-17T20:07:48.352Z,14.97
2022-09-17T20:10:24.013Z,14.85
2022-09-17T20:12:57.407Z,14.93
2022-09-17T20:15:29.451Z,14.85
2022-09-17T20:18:01.813Z,14.81
2022-09-17T20:20:33.906Z,14.97
2022-09-17T20:23:06.630Z,14.98
2022-09-17T20:25:39.521Z,14.94
2022-09-17T20:28:12.247Z,14.83
2022-09-17T20:30:44.412Z,14.82
2022-09-17T20:33:19.959Z,14.61
2022-09-17T20:36:00.342Z,14.49
2022-09-17T20:39:09.935Z,14.54
2022-09-17T20:41:27.527Z,14.54
2022-09-17T20:44:00.121Z,14.41
2022-09-17T20:46:32.507Z,14.36
2022-09-17T20:49:05.433Z,14.33
2022-09-17T20:51:37.807Z,14.34
2022-09-17T20:54:12.797Z,14.27
2022-09-17T20:56:45.030Z,14.37
2022-09-17T20:59:18.798Z,14.32
2022-09-17T21:01:51.714Z,14.22
2022-09-17T21:04:26.374Z,14.28
2022-09-17T21:06:58.400Z,14.14
2022-09-17T21:09:30.368Z,14.07
2022-09-17T21:12:02.378Z,14.13
2022-09-17T21:14:34.422Z,14.16
2022-09-17T21:17:06.981Z,14.19
2022-09-17T21:19:39.311Z,14.21
2022-09-17T21:22:11.233Z,14.20
2022-09-17T21:24:43.497Z,14.20
2022-09-17T21:27:15.531Z,14.10
2022-09-17T21:29:48.145Z,14.10
2022-09-17T21:32:20.175Z,14.07
2022-09-17T21:34:52.388Z,14.00
2022-09-17T21:37:25.119Z,14.03
2022-09-17T21:39:57.223Z,14.08
2022-09-17T21:42:29.264Z,14.00
2022-09-17T21:45:01.199Z,13.95
2022-09-17T21:47:34.610Z,13.86
2022-09-17T21:50:07.839Z,13.77
2022-09-17T21:52:39.901Z,13.80
2022-09-17T21:55:12.772Z,13.79
2022-09-17T21:57:44.920Z,13.78
2022-09-17T22:00:23.183Z,13.74
2022-09-17T22:02:55.622Z,13.73
2022-09-17T22:05:27.636Z,13.87
2022-09-17T22:07:59.549Z,13.89
2022-09-17T22:10:31.806Z,13.86
2022-09-17T22:13:03.830Z,13.85
2022-09-17T22:15:36.085Z,13.98
2022-09-17T22:18:12.681Z,13.94
2022-09-17T22:20:45.161Z,13.91
2022-09-17T22:23:17.214Z,13.87
2022-09-17T22:25:49.348Z,13.80
2022-09-17T22:28:21.906Z,13.86
2022-09-17T22:30:56.723Z,13.84
2022-09-17T22:33:32.000Z,13.70
2022-09-17T22:36:09.848Z,13.76
2022-09-17T22:38:42.608Z,13.72
2022-09-17T22:41:17.764Z,13.69
2022-09-17T22:43:53.546Z,13.64
2022-09-17T22:46:27.666Z,13.51
2022-09-17T22:49:00.907Z,13.45
2022-09-17T22:51:33.368Z,13.50
2022-09-17T22:54:06.335Z,13.53
2022-09-17T22:56:38.451Z,13.44
2022-09-17T22:59:11.795Z,13.42
2022-09-17T23:01:44.118Z,13.54
2022-09-17T23:04:16.230Z,13.46
2022-09-17T23:06:48.315Z,13.36
2022-09-17T23:09:20.429Z,13.32
2022-09-17T23:11:52.478Z,13.40
2022-09-17T23:14:24.566Z,13.34
2022-09-17T23:16:56.591Z,13.41
2022-09-17T23:19:29.145Z,13.37
2022-09-17T23:22:01.125Z,13.36
2022-09-17T23:24:34.407Z,13.35
2022-09-17T23:27:06.987Z,13.33
2022-09-17T23:29:38.998Z,13.41
2022-09-17T23:32:11.186Z,13.41
2022-09-17T23:34:43.184Z,13.24
2022-09-17T23:37:15.173Z,13.33
2022-09-17T23:39:47.048Z,13.31
2022-09-17T23:42:19.624Z,13.18
2022-09-17T23:44:51.811Z,13.24
2022-09-17T23:47:23.879Z,13.19
2022-09-17T23:49:55.993Z,13.09
2022-09-17T23:52:28.057Z,13.17
2022-09-17T23:55:00.144Z,13.16
2022-09-17T23:57:32.254Z,13.11
